Time;durP1;ratioP1;P1;durP2;ratioP2;P2;SDS_P1;SDS_P2;PMS_P1;PMS_P2;Temp;Humidity;BMP_temperature;BMP_pressure;BME280_temperature;BME280_humidity;BME280_pressure;Samples;Min_cycle;Max_cycle;Signal;HPM_P1;HPM_P2
2023/03/03 00:01:19;;;;;;;62.65;22.00;;;0.90;99.90;;;;;;5044578;28;20037;-42
2023/03/03 00:03:45;;;;;;;110.13;24.42;;;0.90;99.90;;;;;;5045937;28;20490;-41
2023/03/03 00:06:13;;;;;;;61.38;20.85;;;1.00;99.90;;;;;;5045516;28;20048;-42
2023/03/03 00:08:39;;;;;;;123.65;25.90;;;1.00;99.90;;;;;;5044571;28;20118;-41
2023/03/03 00:11:06;;;;;;;111.93;25.30;;;1.00;99.90;;;;;;5045596;28;20040;-43
2023/03/03 00:13:37;;;;;;;79.35;23.70;;;1.00;99.90;;;;;;5045349;28;20072;-42
2023/03/03 00:16:14;;;;;;;98.43;25.48;;;1.10;99.90;;;;;;5045473;28;20047;-42
2023/03/03 00:18:43;;;;;;;64.78;21.92;;;1.00;99.90;;;;;;5044451;28;20103;-42
2023/03/03 00:21:22;;;;;;;171.77;28.77;;;1.10;99.90;;;;;;5044781;28;20044;-41
2023/03/03 00:23:48;;;;;;;99.65;22.55;;;1.10;99.90;;;;;;5045845;28;20049;-42
2023/03/03 00:26:32;;;;;;;141.43;25.52;;;1.10;99.90;;;;;;5048398;28;20044;-41
2023/03/03 00:29:00;;;;;;;111.13;23.13;;;1.00;99.90;;;;;;5050542;28;20041;-41
2023/03/03 00:31:33;;;;;;;85.03;24.42;;;1.10;99.90;;;;;;5049865;28;20090;-44
2023/03/03 00:34:16;;;;;;;169.50;28.52;;;1.20;99.90;;;;;;5049912;28;20175;-41
2023/03/03 00:36:43;;;;;;;83.13;22.75;;;1.00;99.90;;;;;;5049722;28;20041;-42
2023/03/03 00:39:30;;;;;;;138.05;27.20;;;1.20;99.90;;;;;;5049303;28;20049;-41
2023/03/03 00:41:59;;;;;;;110.30;25.75;;;1.10;99.90;;;;;;5049028;28;20490;-41
2023/03/03 00:44:37;;;;;;;220.50;30.98;;;1.20;99.90;;;;;;5047784;28;20811;-41
2023/03/03 00:47:26;;;;;;;210.48;31.13;;;1.20;99.90;;;;;;5049640;28;20048;-41
2023/03/03 00:49:54;;;;;;;160.50;27.95;;;1.50;99.90;;;;;;5049373;28;20211;-42
2023/03/03 00:52:20;;;;;;;104.90;23.90;;;1.10;99.90;;;;;;5049259;28;20470;-41
2023/03/03 00:54:46;;;;;;;214.82;28.30;;;1.20;99.90;;;;;;5049067;28;20501;-42
2023/03/03 00:57:11;;;;;;;324.85;35.13;;;1.40;99.90;;;;;;5049396;28;20045;-41
2023/03/03 00:59:38;;;;;;;115.38;24.98;;;1.30;99.90;;;;;;5050003;28;20052;-41
2023/03/03 01:02:05;;;;;;;179.43;26.98;;;1.30;99.90;;;;;;5049770;28;20158;-41
2023/03/03 01:04:31;;;;;;;181.25;28.70;;;1.30;99.90;;;;;;5049636;28;20044;-41
2023/03/03 01:06:56;;;;;;;186.23;28.52;;;1.30;99.90;;;;;;5049625;28;20455;-41
2023/03/03 01:09:22;;;;;;;147.65;27.83;;;1.20;99.90;;;;;;5049060;28;20045;-42
2023/03/03 01:11:49;;;;;;;223.00;30.63;;;1.40;99.90;;;;;;5049253;28;20101;-41
2023/03/03 01:14:15;;;;;;;97.82;23.65;;;1.30;99.90;;;;;;5048995;28;20060;-41
2023/03/03 01:16:40;;;;;;;80.68;25.08;;;1.40;99.90;;;;;;5049152;28;20049;-41
2023/03/03 01:19:06;;;;;;;115.75;25.58;;;1.50;99.90;;;;;;5048666;28;20060;-41
2023/03/03 01:21:32;;;;;;;125.60;27.45;;;2.20;99.90;;;;;;5048908;28;20048;-41
2023/03/03 01:23:58;;;;;;;92.55;24.90;;;1.30;99.90;;;;;;5049006;28;20045;-42
2023/03/03 01:26:23;;;;;;;176.05;30.20;;;1.30;99.90;;;;;;5048579;28;20048;-41
2023/03/03 01:28:49;;;;;;;202.10;30.50;;;1.40;99.90;;;;;;5048417;28;20041;-42
2023/03/03 01:31:15;;;;;;;138.10;28.40;;;1.30;99.90;;;;;;5048793;28;20037;-41
2023/03/03 01:33:41;;;;;;;106.80;25.20;;;1.50;99.90;;;;;;5047010;28;20041;-41
2023/03/03 01:36:08;;;;;;;111.72;26.83;;;1.40;99.90;;;;;;5048773;28;20080;-42
2023/03/03 01:38:37;;;;;;;146.98;28.65;;;1.40;99.90;;;;;;5048023;28;20045;-41
2023/03/03 01:41:03;;;;;;;119.72;26.38;;;1.40;99.90;;;;;;5048890;28;20414;-41
2023/03/03 01:43:30;;;;;;;105.75;26.13;;;1.30;99.90;;;;;;5049082;28;20036;-41
2023/03/03 01:45:56;;;;;;;179.30;30.60;;;1.40;99.90;;;;;;5046601;28;20053;-42
2023/03/03 01:48:39;;;;;;;258.10;34.05;;;1.50;99.90;;;;;;5048350;28;20098;-41
2023/03/03 01:51:21;;;;;;;152.90;28.10;;;1.50;99.90;;;;;;5048322;28;20059;-43
2023/03/03 01:53:58;;;;;;;112.47;26.00;;;1.60;99.90;;;;;;5048175;28;20128;-42
2023/03/03 01:56:25;;;;;;;149.85;28.83;;;1.40;99.90;;;;;;5048877;28;20256;-42
2023/03/03 01:59:12;;;;;;;252.50;33.40;;;1.40;99.90;;;;;;5048347;28;20133;-42
2023/03/03 02:01:39;;;;;;;189.52;30.38;;;1.30;99.90;;;;;;5048421;28;20181;-42
2023/03/03 02:04:05;;;;;;;122.07;27.73;;;1.60;99.90;;;;;;5048592;28;20080;-42
2023/03/03 02:06:36;;;;;;;220.93;30.73;;;1.40;99.90;;;;;;5048237;28;20617;-43
2023/03/03 02:09:10;;;;;;;149.52;28.42;;;1.50;99.90;;;;;;5047918;28;20625;-42
2023/03/03 02:11:37;;;;;;;260.77;30.42;;;1.30;99.90;;;;;;5047886;28;20123;-41
2023/03/03 02:14:03;;;;;;;122.75;25.88;;;1.50;99.90;;;;;;5048520;28;20041;-42
2023/03/03 02:16:29;;;;;;;113.82;25.90;;;1.50;99.90;;;;;;5048826;28;20052;-42
2023/03/03 02:18:55;;;;;;;150.32;27.60;;;1.60;99.90;;;;;;5047691;28;20059;-43
2023/03/03 02:21:23;;;;;;;187.32;30.65;;;1.60;99.90;;;;;;5048520;28;20384;-41
2023/03/03 02:24:17;;;;;;;285.42;34.50;;;1.60;99.90;;;;;;5048203;28;20747;-41
2023/03/03 02:26:45;;;;;;;312.33;39.15;;;1.50;99.90;;;;;;5047445;28;20072;-42
2023/03/03 02:29:11;;;;;;;163.15;28.75;;;1.60;99.90;;;;;;5046188;28;20044;-41
2023/03/03 02:31:37;;;;;;;155.32;28.75;;;1.60;99.90;;;;;;5047754;28;20128;-42
2023/03/03 02:34:03;;;;;;;301.40;37.10;;;1.70;99.90;;;;;;5047180;28;20124;-43
2023/03/03 02:36:32;;;;;;;373.23;42.83;;;2.50;99.90;;;;;;5047683;28;20406;-41
2023/03/03 02:39:17;;;;;;;186.05;29.98;;;1.70;99.90;;;;;;5047333;28;20040;-42
2023/03/03 02:42:08;;;;;;;316.88;37.95;;;1.50;99.90;;;;;;5047718;28;20045;-41
2023/03/03 02:44:34;;;;;;;275.75;34.05;;;1.40;99.90;;;;;;5048024;28;20053;-41
2023/03/03 02:47:00;;;;;;;203.68;31.45;;;1.50;99.90;;;;;;5047208;28;20368;-41
2023/03/03 02:49:30;;;;;;;225.82;32.10;;;1.60;99.90;;;;;;5047190;28;20482;-41
2023/03/03 02:51:57;;;;;;;175.30;29.70;;;1.60;99.90;;;;;;5047860;28;20053;-41
2023/03/03 02:54:26;;;;;;;282.52;33.85;;;1.70;99.90;;;;;;5047713;28;20064;-41
2023/03/03 02:56:51;;;;;;;236.45;33.63;;;1.80;99.90;;;;;;5046869;28;20044;-41
2023/03/03 02:59:18;;;;;;;203.55;32.15;;;1.90;99.90;;;;;;5047527;28;20044;-41
2023/03/03 03:01:45;;;;;;;216.93;34.05;;;1.70;99.90;;;;;;5047408;28;20438;-41
2023/03/03 03:04:13;;;;;;;178.88;29.10;;;1.60;99.90;;;;;;5044956;28;20057;-42
2023/03/03 03:06:40;;;;;;;139.95;26.83;;;1.50;99.90;;;;;;5046292;28;20051;-42
2023/03/03 03:09:07;;;;;;;279.40;33.35;;;1.80;99.90;;;;;;5046269;28;20390;-41
2023/03/03 03:11:34;;;;;;;211.57;28.13;;;1.80;99.90;;;;;;5046622;28;20051;-43
2023/03/03 03:14:01;;;;;;;148.68;23.48;;;1.80;99.90;;;;;;5046319;28;20116;-42
2023/03/03 03:16:26;;;;;;;142.82;24.10;;;1.60;99.90;;;;;;5046779;28;20801;-41
2023/03/03 03:18:52;;;;;;;123.93;23.13;;;2.10;99.90;;;;;;5045894;28;20044;-41
2023/03/03 03:21:18;;;;;;;187.70;24.25;;;1.80;99.90;;;;;;5046636;28;20060;-41
2023/03/03 03:23:44;;;;;;;178.57;24.05;;;1.70;99.90;;;;;;5047005;28;20094;-42
2023/03/03 03:26:10;;;;;;;207.40;28.02;;;1.80;99.90;;;;;;5046925;28;20045;-42
2023/03/03 03:28:37;;;;;;;183.05;24.30;;;1.70;99.90;;;;;;5046949;28;20487;-41
2023/03/03 03:31:03;;;;;;;194.70;24.88;;;1.70;99.90;;;;;;5046130;28;20060;-41
2023/03/03 03:33:29;;;;;;;135.75;21.85;;;1.60;99.90;;;;;;5046877;28;20048;-41
2023/03/03 03:35:56;;;;;;;137.73;20.17;;;1.80;99.90;;;;;;5046222;28;20045;-42
2023/03/03 03:38:23;;;;;;;116.93;20.45;;;1.70;99.90;;;;;;5045175;28;20047;-41
2023/03/03 03:40:49;;;;;;;116.15;19.08;;;1.80;99.90;;;;;;5046783;28;20045;-42
2023/03/03 03:43:14;;;;;;;176.32;22.48;;;1.80;99.90;;;;;;5046474;28;20788;-41
2023/03/03 03:45:44;;;;;;;143.18;20.15;;;1.70;99.90;;;;;;5046150;28;20126;-42
2023/03/03 03:48:10;;;;;;;178.30;20.70;;;1.70;99.90;;;;;;5046488;28;20047;-42
2023/03/03 03:50:36;;;;;;;88.38;17.38;;;1.70;99.90;;;;;;5045972;28;20064;-41
2023/03/03 03:53:02;;;;;;;117.65;17.15;;;1.60;99.90;;;;;;5046425;28;20123;-43
2023/03/03 03:55:28;;;;;;;166.73;20.90;;;1.80;99.90;;;;;;5046587;28;20139;-43
2023/03/03 03:57:55;;;;;;;115.82;18.85;;;1.70;99.90;;;;;;5045497;28;20708;-41
2023/03/03 04:00:21;;;;;;;125.22;19.48;;;2.50;99.90;;;;;;5044929;28;20541;-41
2023/03/03 04:02:47;;;;;;;137.45;19.70;;;1.60;99.90;;;;;;5045749;28;20071;-42
2023/03/03 04:05:13;;;;;;;182.30;20.17;;;1.70;99.90;;;;;;5046045;28;20045;-42
2023/03/03 04:07:39;;;;;;;156.52;19.38;;;1.70;99.90;;;;;;5045956;28;20048;-41
2023/03/03 04:10:05;;;;;;;188.80;21.20;;;1.60;99.90;;;;;;5045585;28;20041;-41
2023/03/03 04:12:37;;;;;;;172.15;19.80;;;1.50;99.90;;;;;;5045861;28;20506;-42
2023/03/03 04:15:07;;;;;;;181.90;20.27;;;1.60;99.90;;;;;;5044473;28;20387;-41
2023/03/03 04:17:33;;;;;;;131.95;16.30;;;1.50;99.90;;;;;;5045681;28;20044;-42
2023/03/03 04:19:59;;;;;;;264.20;23.45;;;1.60;99.90;;;;;;5045776;28;20551;-41
2023/03/03 04:22:25;;;;;;;146.13;17.40;;;1.60;99.90;;;;;;5046426;28;20044;-41
2023/03/03 04:24:51;;;;;;;248.23;21.98;;;1.60;99.90;;;;;;5046334;28;20068;-42
2023/03/03 04:27:16;;;;;;;172.75;18.55;;;1.40;99.90;;;;;;5046057;28;20045;-41
2023/03/03 04:29:42;;;;;;;181.63;20.52;;;1.50;99.90;;;;;;5046336;28;20080;-41
2023/03/03 04:32:08;;;;;;;149.15;18.60;;;2.40;99.90;;;;;;5046331;28;20037;-41
2023/03/03 04:34:34;;;;;;;162.07;17.27;;;1.60;99.90;;;;;;5046067;28;20052;-41
2023/03/03 04:37:00;;;;;;;145.75;16.20;;;1.60;99.90;;;;;;5046080;28;20680;-42
2023/03/03 04:39:27;;;;;;;85.13;13.98;;;1.50;99.90;;;;;;5046250;28;20126;-41
2023/03/03 04:41:53;;;;;;;85.35;12.95;;;1.50;99.90;;;;;;5046019;28;20128;-41
2023/03/03 04:44:19;;;;;;;144.43;17.08;;;1.60;99.90;;;;;;5045522;28;20585;-42
2023/03/03 04:46:44;;;;;;;104.85;13.60;;;1.60;99.90;;;;;;5045775;28;20140;-41
2023/03/03 04:49:10;;;;;;;166.00;17.13;;;1.60;99.90;;;;;;5045537;28;20118;-41
2023/03/03 04:51:36;;;;;;;123.18;15.80;;;1.70;99.90;;;;;;5045815;28;20056;-42
2023/03/03 04:54:01;;;;;;;127.65;14.00;;;1.50;99.90;;;;;;5046092;28;20380;-41
2023/03/03 04:56:30;;;;;;;104.50;14.35;;;1.50;99.90;;;;;;5045529;28;20080;-42
2023/03/03 04:58:56;;;;;;;130.57;17.17;;;1.60;99.90;;;;;;5046175;28;20073;-41
2023/03/03 05:01:22;;;;;;;100.32;13.85;;;1.40;99.90;;;;;;5044215;28;20087;-42
2023/03/03 05:03:48;;;;;;;153.85;17.42;;;1.50;99.90;;;;;;5045962;28;20053;-41
2023/03/03 05:06:14;;;;;;;96.78;14.32;;;1.40;99.90;;;;;;5045169;28;20099;-41
2023/03/03 05:08:42;;;;;;;142.40;16.90;;;1.50;99.90;;;;;;5045907;28;20039;-41
2023/03/03 05:11:07;;;;;;;220.93;18.75;;;1.50;99.90;;;;;;5046006;28;20044;-41
2023/03/03 05:13:33;;;;;;;116.32;14.57;;;1.50;99.90;;;;;;5049152;28;20475;-42
2023/03/03 05:15:59;;;;;;;160.25;18.83;;;1.40;99.90;;;;;;5048995;28;20048;-41
2023/03/03 05:18:26;;;;;;;159.85;18.77;;;1.40;99.90;;;;;;5049005;28;20068;-41
2023/03/03 05:20:52;;;;;;;146.00;16.92;;;1.40;99.90;;;;;;5049363;28;20691;-42
2023/03/03 05:23:18;;;;;;;277.52;24.60;;;1.40;99.90;;;;;;5049311;28;20072;-41
2023/03/03 05:25:46;;;;;;;216.25;22.38;;;1.40;99.90;;;;;;5049524;28;20047;-41
2023/03/03 05:28:11;;;;;;;211.25;20.92;;;1.50;99.90;;;;;;5049034;28;20032;-41
2023/03/03 05:30:37;;;;;;;175.00;18.63;;;1.40;99.90;;;;;;5049270;28;20605;-41
2023/03/03 05:33:04;;;;;;;186.93;19.73;;;1.50;99.90;;;;;;5049189;28;20037;-41
2023/03/03 05:35:30;;;;;;;119.63;16.88;;;1.40;99.90;;;;;;5048940;28;20079;-42
2023/03/03 05:37:57;;;;;;;76.47;13.75;;;1.40;99.90;;;;;;5049034;28;20041;-41
2023/03/03 05:40:23;;;;;;;111.97;13.75;;;1.40;99.90;;;;;;5048762;28;20079;-41
2023/03/03 05:42:49;;;;;;;105.78;11.95;;;1.50;99.90;;;;;;5048629;28;20120;-41
2023/03/03 05:45:15;;;;;;;140.60;14.88;;;1.40;99.90;;;;;;5048356;28;20668;-42
2023/03/03 05:47:40;;;;;;;144.93;17.77;;;1.30;99.90;;;;;;5048377;28;20040;-42
2023/03/03 05:50:06;;;;;;;180.50;16.35;;;1.40;99.90;;;;;;5047231;28;20061;-42
2023/03/03 05:52:32;;;;;;;168.35;16.02;;;1.20;99.90;;;;;;5049059;28;20049;-41
2023/03/03 05:54:58;;;;;;;146.88;13.77;;;1.30;99.90;;;;;;5048991;28;20475;-41
2023/03/03 05:57:23;;;;;;;143.43;15.73;;;1.30;99.90;;;;;;5047724;28;20587;-41
2023/03/03 05:59:49;;;;;;;87.72;12.40;;;1.20;99.90;;;;;;5048138;28;20509;-42
2023/03/03 06:02:15;;;;;;;148.60;17.00;;;1.20;99.90;;;;;;5047806;28;20041;-42
2023/03/03 06:04:40;;;;;;;117.93;12.88;;;1.30;99.90;;;;;;5047921;28;20044;-41
2023/03/03 06:07:06;;;;;;;116.00;13.85;;;1.00;99.90;;;;;;5047497;28;20049;-42
2023/03/03 06:09:32;;;;;;;126.30;13.15;;;1.30;99.90;;;;;;5048129;28;20052;-41
2023/03/03 06:11:58;;;;;;;71.05;10.43;;;1.20;99.90;;;;;;5048308;28;20068;-42
2023/03/03 06:14:24;;;;;;;81.85;11.48;;;1.30;99.90;;;;;;5047977;28;20141;-41
2023/03/03 06:16:50;;;;;;;85.38;9.75;;;1.10;99.90;;;;;;5048071;28;20049;-41
2023/03/03 06:19:15;;;;;;;91.95;11.98;;;1.20;99.90;;;;;;5047870;28;20037;-43
2023/03/03 06:21:41;;;;;;;140.88;13.48;;;1.10;99.90;;;;;;5047852;28;20128;-41
2023/03/03 06:24:08;;;;;;;92.05;10.63;;;1.10;99.90;;;;;;5047273;28;20048;-41
2023/03/03 06:26:34;;;;;;;103.55;12.40;;;0.90;99.90;;;;;;5048239;28;20099;-41
2023/03/03 06:29:00;;;;;;;91.55;10.48;;;1.10;99.90;;;;;;5048435;28;20052;-41
2023/03/03 06:31:27;;;;;;;101.53;11.77;;;1.10;99.90;;;;;;5048019;28;20037;-41
2023/03/03 06:33:53;;;;;;;69.00;8.68;;;1.10;99.90;;;;;;5048236;28;20041;-41
2023/03/03 06:36:19;;;;;;;86.53;9.68;;;1.10;99.90;;;;;;5048289;28;20044;-42
2023/03/03 06:38:45;;;;;;;90.03;10.75;;;1.10;99.90;;;;;;5048358;28;20053;-41
2023/03/03 06:41:11;;;;;;;91.68;11.38;;;1.10;99.90;;;;;;5048173;28;20462;-41
2023/03/03 06:43:37;;;;;;;80.63;11.18;;;1.20;99.90;;;;;;5047808;28;20053;-41
2023/03/03 06:46:04;;;;;;;107.40;11.93;;;1.20;99.90;;;;;;5047618;28;20045;-41
2023/03/03 06:48:31;;;;;;;122.43;11.88;;;1.00;99.90;;;;;;5047803;28;20435;-41
2023/03/03 06:51:01;;;;;;;97.82;10.93;;;1.10;99.90;;;;;;5047285;28;20060;-41
2023/03/03 06:53:30;;;;;;;67.35;8.73;;;1.20;99.90;;;;;;5047574;28;20044;-41
2023/03/03 06:55:57;;;;;;;109.60;12.48;;;1.20;99.90;;;;;;5047643;28;20049;-41
2023/03/03 06:58:26;;;;;;;105.35;12.48;;;1.20;99.90;;;;;;5046713;28;20119;-41
2023/03/03 07:01:00;;;;;;;98.95;11.77;;;1.20;99.90;;;;;;5047111;28;20079;-41
2023/03/03 07:03:33;;;;;;;76.13;11.93;;;1.80;99.90;;;;;;5047101;28;20582;-42
2023/03/03 07:06:00;;;;;;;104.32;14.32;;;1.40;99.90;;;;;;5046918;28;20506;-41
2023/03/03 07:08:30;;;;;;;83.72;13.38;;;1.40;99.90;;;;;;5047165;28;20398;-42
2023/03/03 07:11:01;;;;;;;131.77;15.95;;;1.50;99.90;;;;;;5047410;28;20036;-41
2023/03/03 07:13:28;;;;;;;121.80;14.70;;;1.60;99.90;;;;;;5047126;28;20159;-41
2023/03/03 07:16:05;;;;;;;131.05;16.83;;;1.60;99.90;;;;;;5047156;28;20156;-42
2023/03/03 07:18:43;;;;;;;106.63;13.38;;;1.70;99.90;;;;;;5047073;28;20041;-41
2023/03/03 07:21:19;;;;;;;78.40;12.07;;;1.60;99.90;;;;;;5046621;28;20045;-41
2023/03/03 07:23:50;;;;;;;136.13;16.05;;;1.60;99.90;;;;;;5046229;28;20770;-42
2023/03/03 07:26:24;;;;;;;105.90;12.20;;;1.70;99.90;;;;;;5046717;28;20045;-41
2023/03/03 07:28:54;;;;;;;100.10;12.50;;;1.90;99.90;;;;;;5046862;28;20798;-41
2023/03/03 07:31:28;;;;;;;96.13;12.68;;;1.80;99.90;;;;;;5046809;28;20045;-42
2023/03/03 07:33:54;;;;;;;124.47;14.40;;;1.90;99.90;;;;;;5047202;28;20045;-41
2023/03/03 07:36:34;;;;;;;101.38;13.15;;;1.90;99.90;;;;;;5047029;28;20049;-42
2023/03/03 07:39:17;;;;;;;174.38;18.23;;;2.40;99.90;;;;;;5047151;28;20148;-41
2023/03/03 07:41:43;;;;;;;82.43;12.82;;;1.90;99.90;;;;;;5046531;28;20487;-41
2023/03/03 07:44:28;;;;;;;148.23;16.80;;;2.20;99.90;;;;;;5046932;28;20055;-41
2023/03/03 07:46:54;;;;;;;109.82;16.45;;;2.10;99.90;;;;;;5046500;28;20091;-42
2023/03/03 07:49:35;;;;;;;85.85;13.93;;;2.40;99.90;;;;;;5046799;28;20148;-41
2023/03/03 07:52:29;;;;;;;70.28;12.60;;;2.20;99.90;;;;;;5046875;28;20098;-41
2023/03/03 07:54:58;;;;;;;70.75;10.88;;;2.20;99.90;;;;;;5045242;28;20403;-40
2023/03/03 07:57:35;;;;;;;57.45;10.43;;;2.40;99.90;;;;;;5046458;28;20376;-40
2023/03/03 08:00:27;;;;;;;74.95;11.40;;;2.40;99.90;;;;;;5045737;28;20526;-40
2023/03/03 08:03:01;;;;;;;52.10;9.75;;;2.40;99.90;;;;;;5045230;28;20638;-41
2023/03/03 08:05:34;;;;;;;63.53;9.93;;;2.50;99.90;;;;;;5046387;28;20378;-40
2023/03/03 08:08:09;;;;;;;;;;;2.70;99.90;;;;;;5046378;28;20082;-40
2023/03/03 08:10:42;;;;;;;60.20;8.55;;;2.60;99.90;;;;;;5046315;28;19920;-39
2023/03/03 08:13:22;;;;;;;50.28;8.40;;;2.70;99.90;;;;;;5044935;28;20048;-41
2023/03/03 08:16:17;;;;;;;91.47;10.70;;;3.00;99.90;;;;;;5045935;28;20418;-40
2023/03/03 08:18:48;;;;;;;68.80;10.27;;;3.00;99.90;;;;;;5046356;28;20037;-39
2023/03/03 08:21:26;;;;;;;34.80;8.30;;;3.20;99.90;;;;;;5046545;28;20041;-40
2023/03/03 08:23:52;;;;;;;94.75;12.93;;;3.30;99.90;;;;;;5045972;28;20045;-41
2023/03/03 08:26:20;;;;;;;71.45;10.02;;;3.40;99.90;;;;;;5045684;28;20370;-40
2023/03/03 08:28:46;;;;;;;63.42;8.55;;;3.60;99.90;;;;;;5046081;28;20087;-41
2023/03/03 08:31:12;;;;;;;46.38;8.00;;;3.50;99.90;;;;;;5045976;28;20118;-40
2023/03/03 08:33:38;;;;;;;68.45;8.18;;;4.60;99.90;;;;;;5045953;28;20087;-41
2023/03/03 08:36:05;;;;;;;64.15;8.32;;;3.60;99.90;;;;;;5045950;28;20048;-42
2023/03/03 08:38:31;;;;;;;55.70;6.60;;;3.80;99.90;;;;;;5045723;28;20041;-41
2023/03/03 08:40:57;;;;;;;37.42;7.57;;;3.90;99.90;;;;;;5046116;28;20452;-42
2023/03/03 08:43:23;;;;;;;43.50;6.18;;;3.90;99.90;;;;;;5045855;28;20044;-40
2023/03/03 08:45:51;;;;;;;41.17;5.90;;;4.00;99.90;;;;;;5045378;28;20056;-41
2023/03/03 08:48:17;;;;;;;19.30;4.50;;;4.00;99.90;;;;;;5049055;28;20859;-42
2023/03/03 08:50:43;;;;;;;46.13;5.20;;;5.20;99.90;;;;;;5014246;28;20106;-42
2023/03/03 08:53:11;;;;;;;23.20;4.75;;;4.10;99.90;;;;;;5049305;28;20086;-41
2023/03/03 08:55:37;;;;;;;14.18;4.10;;;3.80;99.90;;;;;;5049292;28;20060;-41
2023/03/03 08:58:02;;;;;;;30.35;4.93;;;3.80;99.90;;;;;;5049137;28;20116;-41
2023/03/03 09:00:28;;;;;;;25.42;4.72;;;3.60;99.90;;;;;;5049196;28;20174;-41
2023/03/03 09:02:54;;;;;;;25.42;4.97;;;3.70;99.90;;;;;;5049574;28;20040;-41
2023/03/03 09:05:20;;;;;;;18.95;4.72;;;3.60;99.90;;;;;;5049739;28;20433;-42
2023/03/03 09:07:46;;;;;;;14.35;5.57;;;3.60;99.90;;;;;;5049583;28;20045;-41
2023/03/03 09:10:16;;;;;;;27.15;5.72;;;3.60;99.90;;;;;;5049631;28;20486;-40
2023/03/03 09:12:47;;;;;;;14.32;4.97;;;3.50;99.90;;;;;;5049540;28;20048;-40
2023/03/03 09:15:25;;;;;;;10.68;4.15;;;3.50;99.90;;;;;;5049398;28;20041;-40
2023/03/03 09:17:51;;;;;;;10.45;4.47;;;3.40;99.90;;;;;;5048474;28;20475;-41
2023/03/03 09:20:26;;;;;;;12.32;4.68;;;3.10;99.90;;;;;;5049006;28;20510;-40
2023/03/03 09:22:52;;;;;;;12.73;4.75;;;3.30;99.90;;;;;;5048643;28;20055;-41
2023/03/03 09:25:35;;;;;;;13.45;5.43;;;3.30;99.90;;;;;;5048057;28;20483;-40
2023/03/03 09:28:01;;;;;;;8.27;4.60;;;3.30;99.90;;;;;;5048429;28;20540;-40
2023/03/03 09:30:38;;;;;;;9.45;5.20;;;3.30;99.90;;;;;;5047946;28;20846;-40
2023/03/03 09:33:41;;;;;;;11.63;5.97;;;3.30;99.90;;;;;;5033541;28;20044;-42
2023/03/03 09:36:29;;;;;;;11.48;5.93;;;3.30;99.90;;;;;;5043754;28;20060;-41
2023/03/03 09:38:56;;;;;;;9.00;5.45;;;3.40;99.90;;;;;;5045556;28;20041;-41
2023/03/03 09:41:40;;;;;;;7.47;4.50;;;3.70;99.90;;;;;;5046077;28;20041;-42
2023/03/03 09:44:25;;;;;;;6.85;4.28;;;3.40;99.90;;;;;;5046064;28;20144;-42
2023/03/03 09:46:57;;;;;;;7.65;4.40;;;3.40;99.90;;;;;;5043801;28;20055;-56
2023/03/03 09:49:34;;;;;;;5.78;3.88;;;3.40;99.90;;;;;;5048701;28;20060;-42
2023/03/03 09:52:39;;;;;;;8.02;3.97;;;3.50;99.90;;;;;;5046695;28;20071;-50
2023/03/03 09:55:47;;;;;;;7.93;3.72;;;3.60;99.90;;;;;;5030701;28;20048;-46
2023/03/03 09:58:44;;;;;;;7.28;3.72;;;3.60;99.90;;;;;;5046370;28;20036;-46
2023/03/03 10:01:52;;;;;;;8.73;3.80;;;3.80;99.90;;;;;;5046896;28;20727;-43
2023/03/03 10:04:36;;;;;;;6.93;4.07;;;3.90;99.90;;;;;;5047989;28;20080;-49
2023/03/03 10:07:12;;;;;;;6.95;4.53;;;4.00;99.90;;;;;;5047968;28;20425;-47
2023/03/03 10:09:58;;;;;;;7.28;4.35;;;4.10;99.90;;;;;;5047756;28;20045;-45
2023/03/03 10:13:02;;;;;;;6.78;4.20;;;4.20;99.90;;;;;;5046859;28;20239;-46
2023/03/03 10:15:34;;;;;;;7.03;4.55;;;4.40;99.90;;;;;;5046023;28;20037;-45
2023/03/03 10:18:18;;;;;;;5.97;4.00;;;4.50;99.90;;;;;;5044685;28;20048;-45
2023/03/03 10:20:46;;;;;;;8.60;5.13;;;4.50;99.90;;;;;;5047197;28;20045;-44
2023/03/03 10:23:45;;;;;;;8.20;4.70;;;5.80;99.90;;;;;;5046338;28;20056;-45
2023/03/03 10:26:33;;;;;;;7.97;3.85;;;5.00;99.90;;;;;;5044461;28;20057;-44
2023/03/03 10:29:17;;;;;;;8.07;4.65;;;5.00;99.90;;;;;;5044294;28;20053;-44
2023/03/03 10:31:49;;;;;;;6.35;3.75;;;5.10;99.90;;;;;;5041899;28;20060;-48
2023/03/03 10:34:36;;;;;;;9.97;4.13;;;5.20;99.90;;;;;;5043580;28;20055;-42
2023/03/03 10:37:23;;;;;;;6.53;4.00;;;5.30;99.90;;;;;;5046276;28;20045;-43
2023/03/03 10:39:48;;;;;;;6.50;4.10;;;5.40;99.90;;;;;;5044300;28;20483;-43
2023/03/03 10:42:52;;;;;;;6.63;3.70;;;5.50;99.90;;;;;;5047731;28;20052;-42
2023/03/03 10:45:36;;;;;;;5.47;3.47;;;5.70;99.90;;;;;;5046656;28;20106;-43
2023/03/03 10:48:22;;;;;;;5.93;3.33;;;5.80;99.90;;;;;;5045843;28;20052;-43
2023/03/03 10:51:21;;;;;;;4.88;2.83;;;6.00;99.90;;;;;;5026591;28;20057;-43
2023/03/03 10:54:40;;;;;;;4.68;2.97;;;6.20;99.90;;;;;;5048082;28;20118;-45
2023/03/03 10:57:18;;;;;;;5.10;2.70;;;6.30;99.90;;;;;;5044039;28;20049;-42
2023/03/03 11:00:22;;;;;;;7.10;2.90;;;6.50;99.90;;;;;;5046528;28;20143;-42
2023/03/03 11:03:13;;;;;;;6.53;3.05;;;6.60;99.90;;;;;;5044486;28;20059;-43
2023/03/03 11:05:57;;;;;;;5.10;2.50;;;6.70;99.90;;;;;;5045434;28;20594;-43
2023/03/03 11:08:27;;;;;;;9.27;3.20;;;7.50;99.90;;;;;;5046546;28;20302;-45
2023/03/03 11:11:21;;;;;;;4.88;2.63;;;7.10;99.90;;;;;;5043248;28;20767;-43
2023/03/03 11:14:21;;;;;;;5.40;2.50;;;7.20;99.90;;;;;;5047098;28;20083;-45
2023/03/03 11:17:07;;;;;;;7.28;3.22;;;7.70;99.90;;;;;;5021371;28;20560;-50
2023/03/03 11:19:45;;;;;;;5.05;2.40;;;8.10;99.90;;;;;;5045231;28;20526;-48
2023/03/03 11:22:28;;;;;;;7.25;2.67;;;7.90;99.90;;;;;;5045077;28;20106;-48
2023/03/03 11:25:17;;;;;;;6.10;1.63;;;7.90;99.90;;;;;;5045672;28;20040;-49
2023/03/03 11:28:01;;;;;;;4.70;1.70;;;8.10;99.90;;;;;;5041740;28;20587;-47
2023/03/03 11:30:39;;;;;;;7.05;2.63;;;8.30;99.90;;;;;;5045390;28;20498;-44
2023/03/03 11:33:08;;;;;;;6.00;2.28;;;8.40;99.90;;;;;;5045757;28;20087;-47
2023/03/03 11:35:50;;;;;;;3.88;1.58;;;8.50;99.90;;;;;;5044835;28;20071;-44
2023/03/03 11:38:54;;;;;;;5.37;1.80;;;9.10;99.90;;;;;;5046447;28;20122;-47
2023/03/03 11:41:28;;;;;;;3.05;1.40;;;8.80;99.90;;;;;;5044635;28;20059;-56
2023/03/03 11:43:56;;;;;;;2.95;1.50;;;8.90;99.90;;;;;;5042820;28;20485;-47
2023/03/03 11:46:52;;;;;;;4.95;1.77;;;9.00;99.90;;;;;;5042647;28;20147;-52
2023/03/03 11:49:56;;;;;;;5.25;1.52;;;8.90;99.90;;;;;;5040708;28;20064;-53
2023/03/03 11:52:40;;;;;;;2.17;1.10;;;8.90;99.90;;;;;;5020963;28;20713;-51
2023/03/03 11:55:40;;;;;;;3.78;1.50;;;8.80;99.90;;;;;;5027454;28;20056;-50
2023/03/03 11:58:45;;;;;;;5.13;1.63;;;8.90;99.90;;;;;;5044919;28;20526;-49
2023/03/03 12:01:20;;;;;;;3.08;1.52;;;8.90;99.90;;;;;;5045711;28;20127;-54
2023/03/03 12:03:57;;;;;;;2.85;1.13;;;9.00;99.90;;;;;;5045241;28;20047;-54
2023/03/03 12:06:25;;;;;;;7.18;1.30;;;9.00;99.90;;;;;;5045181;28;20087;-53
2023/03/03 12:09:16;;;;;;;4.22;0.98;;;9.00;99.90;;;;;;5045845;28;20749;-54
2023/03/03 12:12:03;;;;;;;2.67;0.95;;;9.00;99.90;;;;;;5046199;28;20049;-54
2023/03/03 12:15:03;;;;;;;4.57;0.70;;;9.00;99.90;;;;;;5046091;28;20721;-54
2023/03/03 12:17:59;;;;;;;2.67;1.10;;;9.10;99.90;;;;;;5046166;28;20776;-53
2023/03/03 12:20:47;;;;;;;3.67;0.85;;;9.10;99.90;;;;;;5046228;28;20056;-54
2023/03/03 12:23:19;;;;;;;4.70;1.00;;;9.20;99.90;;;;;;5046842;28;20064;-54
2023/03/03 12:26:01;;;;;;;2.17;0.50;;;9.30;99.90;;;;;;5046518;28;20610;-54
2023/03/03 12:28:35;;;;;;;2.92;0.52;;;9.30;99.90;;;;;;5046295;28;20118;-52
2023/03/03 12:31:15;;;;;;;1.50;0.32;;;9.30;99.90;;;;;;5045099;28;20043;-54
2023/03/03 12:33:57;;;;;;;1.77;0.40;;;9.50;99.90;;;;;;5045248;28;20041;-53
2023/03/03 12:36:35;;;;;;;;;;;9.80;99.90;;;;;;5046619;28;20056;-54
2023/03/03 12:39:19;;;;;;;2.67;0.70;;;9.50;99.90;;;;;;5046541;28;20297;-54
2023/03/03 12:42:00;;;;;;;1.33;0.30;;;9.60;99.90;;;;;;5046912;28;20110;-52
2023/03/03 12:45:00;;;;;;;7.28;0.43;;;9.70;99.90;;;;;;5046500;28;20499;-53
2023/03/03 12:47:48;;;;;;;2.97;0.50;;;9.70;99.90;;;;;;5046223;28;20041;-53
2023/03/03 12:50:43;;;;;;;2.78;0.43;;;9.70;99.90;;;;;;5045555;28;20057;-53
2023/03/03 12:53:20;;;;;;;2.88;0.60;;;9.70;99.90;;;;;;5045887;28;20041;-54
2023/03/03 12:55:52;;;;;;;3.72;0.52;;;9.60;99.90;;;;;;5045924;28;20630;-52
2023/03/03 12:58:47;;;;;;;2.72;0.45;;;9.50;99.90;;;;;;5045353;28;20126;-53
2023/03/03 13:01:22;;;;;;;0.88;0.28;;;9.40;99.90;;;;;;5040654;28;20055;-54
2023/03/03 13:03:57;;;;;;;8.48;0.65;;;9.40;99.90;;;;;;5046205;28;20056;-54
2023/03/03 13:06:28;;;;;;;3.42;0.25;;;9.30;99.90;;;;;;5045798;28;20052;-54
2023/03/03 13:09:32;;;;;;;4.53;0.30;;;9.40;99.90;;;;;;5046175;28;20558;-54